Terminal Aerodrome Forecast
Issued by NWS Sterling, VA

Home | Current Version | Previous Version | Text Only | Print | Product List | Glossary On
Versions: 1 2 3 4 5 6 7 8 9 10 11 12
636
FTUS41 KLWX 271130
TAFCHO
TAF
KCHO 271130Z 2712/2812 22004KT P6SM SCT150
     FM271800 18006KT P6SM VCTS SCT050CB
     FM280000 18005KT P6SM SCT080=

USA.gov is the U.S. government's official web portal to all federal, state and local government web resources and services.